sensor_id;sensor_type;location;lat;lon;timestamp;pressure;altitude;pressure_sealevel;temperature;humidity
11985;BME280;6052;53.246;10.368;2023-03-18T00:00:42;100345.50;;;12.18;100.00
11985;BME280;6052;53.246;10.368;2023-03-18T00:03:12;100339.94;;;12.29;100.00
11985;BME280;6052;53.246;10.368;2023-03-18T00:05:44;100332.88;;;12.23;100.00
11985;BME280;6052;53.246;10.368;2023-03-18T00:08:13;100333.78;;;12.34;100.00
11985;BME280;6052;53.246;10.368;2023-03-18T00:10:42;100346.03;;;12.20;100.00
11985;BME280;6052;53.246;10.368;2023-03-18T00:13:12;100342.47;;;12.14;100.00
11985;BME280;6052;53.246;10.368;2023-03-18T00:15:41;100343.34;;;12.20;100.00
11985;BME280;6052;53.246;10.368;2023-03-18T00:18:10;100341.31;;;12.32;100.00
11985;BME280;6052;53.246;10.368;2023-03-18T00:20:43;100340.75;;;12.30;100.00
11985;BME280;6052;53.246;10.368;2023-03-18T00:23:13;100332.25;;;12.11;100.00
11985;BME280;6052;53.246;10.368;2023-03-18T00:25:46;100330.97;;;12.19;100.00
11985;BME280;6052;53.246;10.368;2023-03-18T00:28:15;100337.84;;;12.36;100.00
11985;BME280;6052;53.246;10.368;2023-03-18T00:30:45;100327.50;;;12.23;100.00
11985;BME280;6052;53.246;10.368;2023-03-18T00:33:15;100337.97;;;12.20;100.00
11985;BME280;6052;53.246;10.368;2023-03-18T00:35:47;100336.63;;;12.22;100.00
11985;BME280;6052;53.246;10.368;2023-03-18T00:38:17;100335.94;;;12.32;100.00
11985;BME280;6052;53.246;10.368;2023-03-18T00:40:50;100331.19;;;12.49;100.00
11985;BME280;6052;53.246;10.368;2023-03-18T00:43:29;100339.91;;;12.61;100.00
11985;BME280;6052;53.246;10.368;2023-03-18T00:46:05;100332.34;;;12.58;100.00
11985;BME280;6052;53.246;10.368;2023-03-18T00:48:34;100333.72;;;12.60;100.00
11985;BME280;6052;53.246;10.368;2023-03-18T00:51:06;100328.41;;;12.70;100.00
11985;BME280;6052;53.246;10.368;2023-03-18T00:53:39;100328.69;;;12.74;100.00
11985;BME280;6052;53.246;10.368;2023-03-18T00:56:11;100329.28;;;12.81;98.74
11985;BME280;6052;53.246;10.368;2023-03-18T00:58:40;100324.41;;;12.78;99.44
11985;BME280;6052;53.246;10.368;2023-03-18T01:01:11;100323.34;;;12.84;98.02
11985;BME280;6052;53.246;10.368;2023-03-18T01:03:41;100318.00;;;12.89;97.30
11985;BME280;6052;53.246;10.368;2023-03-18T01:06:16;100320.66;;;12.84;96.89
11985;BME280;6052;53.246;10.368;2023-03-18T01:08:46;100315.00;;;12.85;96.59
11985;BME280;6052;53.246;10.368;2023-03-18T01:11:15;100326.03;;;12.84;96.68
11985;BME280;6052;53.246;10.368;2023-03-18T01:13:45;100319.41;;;12.96;95.29
11985;BME280;6052;53.246;10.368;2023-03-18T01:16:16;100324.22;;;12.94;95.21
11985;BME280;6052;53.246;10.368;2023-03-18T01:18:46;100308.06;;;12.94;94.97
11985;BME280;6052;53.246;10.368;2023-03-18T01:21:19;100329.38;;;12.96;95.48
11985;BME280;6052;53.246;10.368;2023-03-18T01:23:49;100324.34;;;12.68;99.31
11985;BME280;6052;53.246;10.368;2023-03-18T01:26:19;100315.75;;;12.71;100.00
11985;BME280;6052;53.246;10.368;2023-03-18T01:28:48;100312.28;;;12.80;98.10
11985;BME280;6052;53.246;10.368;2023-03-18T01:31:18;100323.91;;;12.86;97.19
11985;BME280;6052;53.246;10.368;2023-03-18T01:33:47;100325.31;;;12.93;95.58
11985;BME280;6052;53.246;10.368;2023-03-18T01:36:19;100330.94;;;12.92;95.45
11985;BME280;6052;53.246;10.368;2023-03-18T01:38:48;100332.00;;;12.86;97.09
11985;BME280;6052;53.246;10.368;2023-03-18T01:41:17;100338.69;;;12.78;99.87
11985;BME280;6052;53.246;10.368;2023-03-18T01:43:47;100338.16;;;12.81;100.00
11985;BME280;6052;53.246;10.368;2023-03-18T01:46:32;100338.34;;;12.70;100.00
11985;BME280;6052;53.246;10.368;2023-03-18T01:49:05;100351.63;;;12.81;100.00
11985;BME280;6052;53.246;10.368;2023-03-18T01:51:39;100340.06;;;12.81;100.00
11985;BME280;6052;53.246;10.368;2023-03-18T01:54:10;100345.44;;;12.81;99.86
11985;BME280;6052;53.246;10.368;2023-03-18T01:56:42;100334.06;;;12.74;99.26
11985;BME280;6052;53.246;10.368;2023-03-18T01:59:14;100338.41;;;12.80;98.75
11985;BME280;6052;53.246;10.368;2023-03-18T02:01:47;100343.25;;;12.78;99.08
11985;BME280;6052;53.246;10.368;2023-03-18T02:04:20;100339.41;;;12.69;100.00
11985;BME280;6052;53.246;10.368;2023-03-18T02:06:54;100336.50;;;12.75;100.00
11985;BME280;6052;53.246;10.368;2023-03-18T02:09:23;100332.91;;;12.65;100.00
11985;BME280;6052;53.246;10.368;2023-03-18T02:11:53;100344.25;;;12.67;100.00
11985;BME280;6052;53.246;10.368;2023-03-18T02:14:24;100337.69;;;12.53;100.00
11985;BME280;6052;53.246;10.368;2023-03-18T02:16:58;100344.19;;;12.57;100.00
11985;BME280;6052;53.246;10.368;2023-03-18T02:19:47;100335.09;;;12.68;100.00
11985;BME280;6052;53.246;10.368;2023-03-18T02:22:27;100341.59;;;12.72;100.00
11985;BME280;6052;53.246;10.368;2023-03-18T02:25:08;100335.47;;;12.45;100.00
11985;BME280;6052;53.246;10.368;2023-03-18T02:27:44;100348.03;;;12.66;100.00
11985;BME280;6052;53.246;10.368;2023-03-18T02:30:18;100347.47;;;12.64;100.00
11985;BME280;6052;53.246;10.368;2023-03-18T02:32:49;100343.66;;;12.60;100.00
11985;BME280;6052;53.246;10.368;2023-03-18T02:35:20;100338.25;;;12.55;100.00
11985;BME280;6052;53.246;10.368;2023-03-18T02:37:49;100345.25;;;12.56;100.00
11985;BME280;6052;53.246;10.368;2023-03-18T02:40:22;100348.03;;;12.66;100.00
11985;BME280;6052;53.246;10.368;2023-03-18T02:42:54;100351.66;;;12.50;100.00
11985;BME280;6052;53.246;10.368;2023-03-18T02:45:32;100353.97;;;12.68;100.00
11985;BME280;6052;53.246;10.368;2023-03-18T02:48:07;100352.81;;;12.59;100.00
11985;BME280;6052;53.246;10.368;2023-03-18T02:50:38;100350.69;;;12.61;100.00
11985;BME280;6052;53.246;10.368;2023-03-18T02:53:10;100360.84;;;12.54;100.00
11985;BME280;6052;53.246;10.368;2023-03-18T02:55:40;100359.53;;;12.56;100.00
11985;BME280;6052;53.246;10.368;2023-03-18T02:58:12;100358.94;;;12.49;100.00
11985;BME280;6052;53.246;10.368;2023-03-18T03:00:42;100360.78;;;12.44;100.00
11985;BME280;6052;53.246;10.368;2023-03-18T03:03:11;100352.00;;;12.58;100.00
11985;BME280;6052;53.246;10.368;2023-03-18T03:05:41;100350.16;;;12.64;100.00
11985;BME280;6052;53.246;10.368;2023-03-18T03:08:10;100353.94;;;12.63;100.00
11985;BME280;6052;53.246;10.368;2023-03-18T03:10:40;100346.88;;;12.57;100.00
11985;BME280;6052;53.246;10.368;2023-03-18T03:13:12;100344.44;;;12.55;100.00
11985;BME280;6052;53.246;10.368;2023-03-18T03:15:42;100338.28;;;12.60;100.00
11985;BME280;6052;53.246;10.368;2023-03-18T03:18:11;100344.72;;;12.59;100.00
11985;BME280;6052;53.246;10.368;2023-03-18T03:20:42;100352.91;;;12.37;100.00
11985;BME280;6052;53.246;10.368;2023-03-18T03:23:14;100342.50;;;12.51;100.00
11985;BME280;6052;53.246;10.368;2023-03-18T03:25:44;100333.63;;;12.50;100.00
11985;BME280;6052;53.246;10.368;2023-03-18T03:28:16;100344.25;;;12.67;100.00
11985;BME280;6052;53.246;10.368;2023-03-18T03:30:45;100339.38;;;12.64;100.00
11985;BME280;6052;53.246;10.368;2023-03-18T03:33:15;100347.28;;;12.39;100.00
11985;BME280;6052;53.246;10.368;2023-03-18T03:35:44;100340.38;;;12.53;100.00
11985;BME280;6052;53.246;10.368;2023-03-18T03:38:13;100346.44;;;12.38;100.00
11985;BME280;6052;53.246;10.368;2023-03-18T03:40:44;100351.13;;;12.48;100.00
11985;BME280;6052;53.246;10.368;2023-03-18T03:43:16;100347.25;;;12.34;100.00
11985;BME280;6052;53.246;10.368;2023-03-18T03:45:45;100352.06;;;12.32;100.00
11985;BME280;6052;53.246;10.368;2023-03-18T03:48:15;100355.31;;;12.34;100.00
11985;BME280;6052;53.246;10.368;2023-03-18T03:50:44;100355.81;;;12.31;100.00
11985;BME280;6052;53.246;10.368;2023-03-18T03:53:13;100356.13;;;12.34;100.00
11985;BME280;6052;53.246;10.368;2023-03-18T03:55:43;100361.84;;;12.11;100.00
11985;BME280;6052;53.246;10.368;2023-03-18T03:58:12;100354.78;;;12.32;100.00
11985;BME280;6052;53.246;10.368;2023-03-18T04:00:44;100357.66;;;12.25;100.00
11985;BME280;6052;53.246;10.368;2023-03-18T04:03:14;100356.34;;;12.28;100.00
11985;BME280;6052;53.246;10.368;2023-03-18T04:05:43;100358.63;;;12.14;100.00
11985;BME280;6052;53.246;10.368;2023-03-18T04:08:13;100366.19;;;12.17;100.00
11985;BME280;6052;53.246;10.368;2023-03-18T04:10:42;100375.28;;;12.11;100.00
11985;BME280;6052;53.246;10.368;2023-03-18T04:13:12;100377.81;;;12.23;100.00
11985;BME280;6052;53.246;10.368;2023-03-18T04:15:44;100374.66;;;12.31;100.00
11985;BME280;6052;53.246;10.368;2023-03-18T04:18:13;100368.84;;;12.44;100.00
11985;BME280;6052;53.246;10.368;2023-03-18T04:20:42;100371.53;;;12.44;100.00
11985;BME280;6052;53.246;10.368;2023-03-18T04:23:13;100374.69;;;12.36;100.00
11985;BME280;6052;53.246;10.368;2023-03-18T04:25:42;100371.59;;;12.49;100.00
11985;BME280;6052;53.246;10.368;2023-03-18T04:28:12;100371.53;;;12.44;100.00
11985;BME280;6052;53.246;10.368;2023-03-18T04:30:44;100373.59;;;12.32;100.00
11985;BME280;6052;53.246;10.368;2023-03-18T04:33:16;100378.56;;;12.18;100.00
11985;BME280;6052;53.246;10.368;2023-03-18T04:35:46;100386.16;;;12.21;100.00
11985;BME280;6052;53.246;10.368;2023-03-18T04:38:16;100383.34;;;12.38;100.00
11985;BME280;6052;53.246;10.368;2023-03-18T04:40:45;100376.09;;;12.43;100.00
11985;BME280;6052;53.246;10.368;2023-03-18T04:43:15;100387.31;;;12.30;100.00
11985;BME280;6052;53.246;10.368;2023-03-18T04:45:47;100391.06;;;12.29;100.00
11985;BME280;6052;53.246;10.368;2023-03-18T04:48:16;100393.28;;;12.37;100.00
11985;BME280;6052;53.246;10.368;2023-03-18T04:50:45;100396.22;;;12.36;100.00
11985;BME280;6052;53.246;10.368;2023-03-18T04:53:15;100389.22;;;12.35;100.00
11985;BME280;6052;53.246;10.368;2023-03-18T04:55:44;100403.75;;;12.07;100.00
11985;BME280;6052;53.246;10.368;2023-03-18T04:58:13;100396.63;;;12.18;100.00
11985;BME280;6052;53.246;10.368;2023-03-18T05:00:43;100406.09;;;11.99;100.00
11985;BME280;6052;53.246;10.368;2023-03-18T05:03:15;100411.19;;;11.95;100.00
11985;BME280;6052;53.246;10.368;2023-03-18T05:05:45;100410.78;;;11.87;100.00
11985;BME280;6052;53.246;10.368;2023-03-18T05:08:15;100418.75;;;11.77;100.00
11985;BME280;6052;53.246;10.368;2023-03-18T05:10:44;100405.13;;;11.62;100.00
11985;BME280;6052;53.246;10.368;2023-03-18T05:13:13;100398.25;;;11.71;100.00
11985;BME280;6052;53.246;10.368;2023-03-18T05:15:43;100402.75;;;11.44;100.00
11985;BME280;6052;53.246;10.368;2023-03-18T05:18:15;100413.09;;;11.57;100.00
11985;BME280;6052;53.246;10.368;2023-03-18T05:20:45;100406.03;;;11.51;100.00
11985;BME280;6052;53.246;10.368;2023-03-18T05:23:15;100407.59;;;11.47;100.00
11985;BME280;6052;53.246;10.368;2023-03-18T05:25:47;100403.59;;;11.49;100.00
11985;BME280;6052;53.246;10.368;2023-03-18T05:28:16;100407.25;;;11.60;100.00
11985;BME280;6052;53.246;10.368;2023-03-18T05:30:46;100405.16;;;11.45;100.00
11985;BME280;6052;53.246;10.368;2023-03-18T05:33:18;100402.75;;;11.44;100.00
11985;BME280;6052;53.246;10.368;2023-03-18T05:35:48;100407.66;;;11.52;100.00
11985;BME280;6052;53.246;10.368;2023-03-18T05:38:18;100404.91;;;11.47;100.00
11985;BME280;6052;53.246;10.368;2023-03-18T05:40:47;100416.97;;;11.44;100.00
11985;BME280;6052;53.246;10.368;2023-03-18T05:43:17;100411.03;;;11.42;100.00
11985;BME280;6052;53.246;10.368;2023-03-18T05:45:47;100419.09;;;11.42;100.00
11985;BME280;6052;53.246;10.368;2023-03-18T05:48:19;100424.53;;;11.26;100.00
11985;BME280;6052;53.246;10.368;2023-03-18T05:50:48;100423.47;;;11.27;100.00
11985;BME280;6052;53.246;10.368;2023-03-18T05:53:18;100425.91;;;11.28;100.00
11985;BME280;6052;53.246;10.368;2023-03-18T05:55:47;100426.63;;;11.24;100.00
11985;BME280;6052;53.246;10.368;2023-03-18T05:58:16;100429.97;;;11.31;100.00
11985;BME280;6052;53.246;10.368;2023-03-18T06:00:46;100435.34;;;11.31;100.00
11985;BME280;6052;53.246;10.368;2023-03-18T06:03:15;100439.81;;;11.25;100.00
11985;BME280;6052;53.246;10.368;2023-03-18T06:05:48;100434.75;;;11.29;100.00
11985;BME280;6052;53.246;10.368;2023-03-18T06:08:17;100443.22;;;11.37;100.00
11985;BME280;6052;53.246;10.368;2023-03-18T06:10:47;100449.41;;;11.38;100.00
11985;BME280;6052;53.246;10.368;2023-03-18T06:13:17;100450.59;;;11.47;100.00
11985;BME280;6052;53.246;10.368;2023-03-18T06:15:47;100454.97;;;11.53;100.00
11985;BME280;6052;53.246;10.368;2023-03-18T06:18:16;100461.66;;;11.50;100.00
11985;BME280;6052;53.246;10.368;2023-03-18T06:20:48;100464.28;;;11.62;100.00
11985;BME280;6052;53.246;10.368;2023-03-18T06:23:18;100455.25;;;11.73;100.00
11985;BME280;6052;53.246;10.368;2023-03-18T06:25:48;100448.78;;;11.69;100.00
11985;BME280;6052;53.246;10.368;2023-03-18T06:28:17;100434.56;;;11.95;100.00
11985;BME280;6052;53.246;10.368;2023-03-18T06:30:47;100441.38;;;11.81;100.00
11985;BME280;6052;53.246;10.368;2023-03-18T06:33:17;100441.69;;;11.84;100.00
11985;BME280;6052;53.246;10.368;2023-03-18T06:35:49;100450.50;;;11.58;100.00
11985;BME280;6052;53.246;10.368;2023-03-18T06:38:19;100454.50;;;11.56;100.00
11985;BME280;6052;53.246;10.368;2023-03-18T06:40:48;100456.81;;;11.47;100.00
11985;BME280;6052;53.246;10.368;2023-03-18T06:43:17;100469.66;;;11.45;100.00
11985;BME280;6052;53.246;10.368;2023-03-18T06:45:47;100468.47;;;11.58;100.00
11985;BME280;6052;53.246;10.368;2023-03-18T06:48:16;100471.59;;;11.66;100.00
11985;BME280;6052;53.246;10.368;2023-03-18T06:50:45;100470.78;;;11.49;100.00
11985;BME280;6052;53.246;10.368;2023-03-18T06:53:17;100478.69;;;11.56;100.00
11985;BME280;6052;53.246;10.368;2023-03-18T06:55:47;100483.41;;;11.65;100.00
11985;BME280;6052;53.246;10.368;2023-03-18T06:58:16;100492.41;;;11.76;100.00
11985;BME280;6052;53.246;10.368;2023-03-18T07:00:45;100498.56;;;11.71;100.00
11985;BME280;6052;53.246;10.368;2023-03-18T07:03:15;100496.50;;;11.78;100.00
11985;BME280;6052;53.246;10.368;2023-03-18T07:05:44;100490.44;;;11.88;100.00
11985;BME280;6052;53.246;10.368;2023-03-18T07:08:14;100493.69;;;11.90;100.00
11985;BME280;6052;53.246;10.368;2023-03-18T07:10:46;100500.13;;;11.89;100.00
11985;BME280;6052;53.246;10.368;2023-03-18T07:13:15;100501.50;;;11.91;100.00
11985;BME280;6052;53.246;10.368;2023-03-18T07:15:44;100500.75;;;11.96;100.00
11985;BME280;6052;53.246;10.368;2023-03-18T07:18:14;100497.16;;;12.12;100.00
11985;BME280;6052;53.246;10.368;2023-03-18T07:20:43;100495.94;;;11.98;100.00
11985;BME280;6052;53.246;10.368;2023-03-18T07:23:12;100498.22;;;12.11;100.00
11985;BME280;6052;53.246;10.368;2023-03-18T07:25:42;100504.75;;;12.15;100.00
11985;BME280;6052;53.246;10.368;2023-03-18T07:28:15;100502.47;;;12.07;100.00
11985;BME280;6052;53.246;10.368;2023-03-18T07:30:44;100507.50;;;12.20;100.00
11985;BME280;6052;53.246;10.368;2023-03-18T07:33:15;100511.06;;;12.25;100.00
11985;BME280;6052;53.246;10.368;2023-03-18T07:35:44;100517.00;;;12.27;100.00
11985;BME280;6052;53.246;10.368;2023-03-18T07:38:13;100525.69;;;12.34;100.00
11985;BME280;6052;53.246;10.368;2023-03-18T07:40:43;100527.69;;;12.44;100.00
11985;BME280;6052;53.246;10.368;2023-03-18T07:43:16;100534.47;;;12.51;100.00
11985;BME280;6052;53.246;10.368;2023-03-18T07:45:45;100537.47;;;12.55;100.00
11985;BME280;6052;53.246;10.368;2023-03-18T07:48:14;100551.72;;;12.50;100.00
11985;BME280;6052;53.246;10.368;2023-03-18T07:50:44;100549.88;;;12.56;100.00
11985;BME280;6052;53.246;10.368;2023-03-18T07:53:14;100554.75;;;12.59;100.00
11985;BME280;6052;53.246;10.368;2023-03-18T07:55:43;100553.19;;;12.63;100.00
11985;BME280;6052;53.246;10.368;2023-03-18T07:58:12;100548.16;;;12.71;100.00
11985;BME280;6052;53.246;10.368;2023-03-18T08:00:45;100553.78;;;12.70;100.00
11985;BME280;6052;53.246;10.368;2023-03-18T08:03:15;100553.34;;;12.78;100.00
11985;BME280;6052;53.246;10.368;2023-03-18T08:05:44;100551.53;;;12.83;100.00
11985;BME280;6052;53.246;10.368;2023-03-18T08:08:14;100558.28;;;12.86;100.00
11985;BME280;6052;53.246;10.368;2023-03-18T08:10:43;100560.41;;;12.84;100.00
11985;BME280;6052;53.246;10.368;2023-03-18T08:13:13;100558.28;;;12.86;100.00
11985;BME280;6052;53.246;10.368;2023-03-18T08:15:44;100556.00;;;12.99;100.00
11985;BME280;6052;53.246;10.368;2023-03-18T08:18:14;100558.50;;;13.06;100.00
11985;BME280;6052;53.246;10.368;2023-03-18T08:20:43;100558.75;;;13.04;100.00
11985;BME280;6052;53.246;10.368;2023-03-18T08:23:13;100554.97;;;13.05;100.00
11985;BME280;6052;53.246;10.368;2023-03-18T08:25:46;100552.28;;;13.05;100.00
11985;BME280;6052;53.246;10.368;2023-03-18T08:28:17;100552.28;;;13.05;100.00
11985;BME280;6052;53.246;10.368;2023-03-18T08:30:52;100553.91;;;13.06;100.00
11985;BME280;6052;53.246;10.368;2023-03-18T08:33:22;100551.25;;;13.11;100.00
11985;BME280;6052;53.246;10.368;2023-03-18T08:35:53;100558.09;;;13.24;100.00
11985;BME280;6052;53.246;10.368;2023-03-18T08:38:23;100562.97;;;13.27;100.00
11985;BME280;6052;53.246;10.368;2023-03-18T08:40:53;100570.31;;;13.36;100.00
11985;BME280;6052;53.246;10.368;2023-03-18T08:43:23;100574.13;;;13.40;100.00
11985;BME280;6052;53.246;10.368;2023-03-18T08:45:55;100554.22;;;13.41;100.00
11985;BME280;6052;53.246;10.368;2023-03-18T08:48:24;100557.97;;;13.45;100.00
11985;BME280;6052;53.246;10.368;2023-03-18T08:50:54;100573.72;;;13.58;100.00
11985;BME280;6052;53.246;10.368;2023-03-18T08:53:23;100566.19;;;13.60;100.00
11985;BME280;6052;53.246;10.368;2023-03-18T08:55:53;100570.81;;;13.65;100.00
11985;BME280;6052;53.246;10.368;2023-03-18T08:58:22;100571.94;;;13.74;100.00
11985;BME280;6052;53.246;10.368;2023-03-18T09:00:55;100581.41;;;13.76;100.00
11985;BME280;6052;53.246;10.368;2023-03-18T09:03:25;100576.63;;;13.93;100.00
11985;BME280;6052;53.246;10.368;2023-03-18T09:05:54;100581.56;;;14.01;100.00
11985;BME280;6052;53.246;10.368;2023-03-18T09:08:24;100591.75;;;13.94;100.00
11985;BME280;6052;53.246;10.368;2023-03-18T09:10:54;100593.72;;;14.04;100.00
11985;BME280;6052;53.246;10.368;2023-03-18T09:13:25;100584.44;;;13.90;100.00
11985;BME280;6052;53.246;10.368;2023-03-18T09:15:57;100582.31;;;13.97;100.00
11985;BME280;6052;53.246;10.368;2023-03-18T09:18:26;100580.19;;;13.99;100.00
11985;BME280;6052;53.246;10.368;2023-03-18T09:20:56;100584.81;;;14.08;100.00
11985;BME280;6052;53.246;10.368;2023-03-18T09:23:25;100595.91;;;14.12;100.00
11985;BME280;6052;53.246;10.368;2023-03-18T09:25:54;100601.84;;;14.09;100.00
11985;BME280;6052;53.246;10.368;2023-03-18T09:28:23;100598.13;;;14.20;100.00
11985;BME280;6052;53.246;10.368;2023-03-18T09:30:53;100603.81;;;14.23;100.00
11985;BME280;6052;53.246;10.368;2023-03-18T09:33:25;100606.03;;;14.36;100.00
11985;BME280;6052;53.246;10.368;2023-03-18T09:35:54;100601.88;;;14.19;100.00
11985;BME280;6052;53.246;10.368;2023-03-18T09:38:23;100617.34;;;14.28;100.00
11985;BME280;6052;53.246;10.368;2023-03-18T09:41:01;100610.28;;;14.22;100.00
11985;BME280;6052;53.246;10.368;2023-03-18T09:43:50;100609.78;;;14.25;100.00
11985;BME280;6052;53.246;10.368;2023-03-18T09:46:26;100607.88;;;14.26;100.00
11985;BME280;6052;53.246;10.368;2023-03-18T09:49:17;100609.03;;;14.45;100.00
11985;BME280;6052;53.246;10.368;2023-03-18T09:51:57;100600.38;;;14.33;100.00
11985;BME280;6052;53.246;10.368;2023-03-18T09:54:35;100601.16;;;14.33;100.00
11985;BME280;6052;53.246;10.368;2023-03-18T09:57:12;100595.03;;;14.48;100.00
11985;BME280;6052;53.246;10.368;2023-03-18T09:59:46;100611.72;;;14.40;100.00
11985;BME280;6052;53.246;10.368;2023-03-18T10:02:23;100611.22;;;14.43;100.00
11985;BME280;6052;53.246;10.368;2023-03-18T10:04:58;100616.06;;;14.46;100.00
11985;BME280;6052;53.246;10.368;2023-03-18T10:07:34;100616.34;;;14.44;100.00
11985;BME280;6052;53.246;10.368;2023-03-18T10:10:07;100619.06;;;14.49;100.00
11985;BME280;6052;53.246;10.368;2023-03-18T10:12:41;100622.56;;;14.50;100.00
11985;BME280;6052;53.246;10.368;2023-03-18T10:15:14;100630.13;;;14.48;100.00
11985;BME280;6052;53.246;10.368;2023-03-18T10:17:50;100626.63;;;14.52;100.00
11985;BME280;6052;53.246;10.368;2023-03-18T10:20:31;100624.13;;;14.36;100.00
11985;BME280;6052;53.246;10.368;2023-03-18T10:23:09;100632.59;;;14.49;100.00
11985;BME280;6052;53.246;10.368;2023-03-18T10:25:50;100639.84;;;14.49;100.00
11985;BME280;6052;53.246;10.368;2023-03-18T10:28:34;100637.69;;;14.51;100.00
11985;BME280;6052;53.246;10.368;2023-03-18T10:31:15;100634.69;;;14.42;100.00
11985;BME280;6052;53.246;10.368;2023-03-18T10:33:54;100636.63;;;14.47;100.00
11985;BME280;6052;53.246;10.368;2023-03-18T10:36:31;100640.13;;;14.52;100.00
11985;BME280;6052;53.246;10.368;2023-03-18T10:39:10;100642.31;;;14.50;100.00
11985;BME280;6052;53.246;10.368;2023-03-18T10:41:42;100640.41;;;14.51;100.00
11985;BME280;6052;53.246;10.368;2023-03-18T10:44:18;100630.16;;;14.53;100.00
11985;BME280;6052;53.246;10.368;2023-03-18T10:46:57;100636.13;;;14.65;100.00
11985;BME280;6052;53.246;10.368;2023-03-18T10:49:29;100629.97;;;14.74;100.00
11985;BME280;6052;53.246;10.368;2023-03-18T10:52:08;100638.84;;;14.65;100.00
11985;BME280;6052;53.246;10.368;2023-03-18T10:54:43;100627.25;;;14.74;100.00
11985;BME280;6052;53.246;10.368;2023-03-18T10:57:19;100641.88;;;14.73;100.00
11985;BME280;6052;53.246;10.368;2023-03-18T10:59:49;100627.00;;;14.76;100.00
11985;BME280;6052;53.246;10.368;2023-03-18T11:02:24;100626.75;;;14.87;100.00
11985;BME280;6052;53.246;10.368;2023-03-18T11:04:57;100632.44;;;14.91;100.00
11985;BME280;6052;53.246;10.368;2023-03-18T11:07:30;100631.38;;;14.97;100.00
11985;BME280;6052;53.246;10.368;2023-03-18T11:10:11;100637.84;;;14.86;100.00
11985;BME280;6052;53.246;10.368;2023-03-18T11:12:41;100641.59;;;14.85;100.00
11985;BME280;6052;53.246;10.368;2023-03-18T11:15:11;100647.59;;;14.97;100.00
11985;BME280;6052;53.246;10.368;2023-03-18T11:17:47;100643.00;;;14.97;100.00
11985;BME280;6052;53.246;10.368;2023-03-18T11:20:20;100646.25;;;14.94;100.00
11985;BME280;6052;53.246;10.368;2023-03-18T11:22:53;100641.91;;;14.93;100.00
11985;BME280;6052;53.246;10.368;2023-03-18T11:25:24;100648.94;;;14.94;100.00
11985;BME280;6052;53.246;10.368;2023-03-18T11:27:57;100649.22;;;14.98;100.00
11985;BME280;6052;53.246;10.368;2023-03-18T11:30:28;100650.28;;;14.87;100.00
11985;BME280;6052;53.246;10.368;2023-03-18T11:33:04;100650.59;;;15.05;100.00
11985;BME280;6052;53.246;10.368;2023-03-18T11:35:38;100645.16;;;15.00;100.00
11985;BME280;6052;53.246;10.368;2023-03-18T11:38:17;100653.88;;;15.17;100.00
11985;BME280;6052;53.246;10.368;2023-03-18T11:40:47;100644.41;;;15.30;100.00
11985;BME280;6052;53.246;10.368;2023-03-18T11:43:19;100653.09;;;15.37;100.00
11985;BME280;6052;53.246;10.368;2023-03-18T11:45:53;100652.22;;;15.26;100.00
11985;BME280;6052;53.246;10.368;2023-03-18T11:48:29;100653.31;;;15.20;100.00
11985;BME280;6052;53.246;10.368;2023-03-18T11:51:15;100652.53;;;15.25;100.00
11985;BME280;6052;53.246;10.368;2023-03-18T11:54:14;100659.00;;;15.29;100.00
11985;BME280;6052;53.246;10.368;2023-03-18T11:56:49;100658.50;;;15.37;100.00
11985;BME280;6052;53.246;10.368;2023-03-18T11:59:28;100659.81;;;15.19;100.00
11985;BME280;6052;53.246;10.368;2023-03-18T12:02:17;100657.97;;;15.35;100.00
11985;BME280;6052;53.246;10.368;2023-03-18T12:05:03;100658.47;;;15.27;100.00
11985;BME280;6052;53.246;10.368;2023-03-18T12:07:49;100664.19;;;15.40;100.00
11985;BME280;6052;53.246;10.368;2023-03-18T12:10:29;100664.47;;;15.39;100.00
11985;BME280;6052;53.246;10.368;2023-03-18T12:13:15;100659.59;;;15.61;100.00
11985;BME280;6052;53.246;10.368;2023-03-18T12:15:51;100662.84;;;15.58;100.00
11985;BME280;6052;53.246;10.368;2023-03-18T12:18:35;100659.06;;;15.49;100.00
11985;BME280;6052;53.246;10.368;2023-03-18T12:21:24;100665.03;;;15.56;100.00
11985;BME280;6052;53.246;10.368;2023-03-18T12:24:06;100660.97;;;15.73;100.00
11985;BME280;6052;53.246;10.368;2023-03-18T12:26:50;100657.97;;;15.80;100.00
11985;BME280;6052;53.246;10.368;2023-03-18T12:29:46;100663.38;;;15.85;100.00
11985;BME280;6052;53.246;10.368;2023-03-18T12:32:24;100658.22;;;15.93;100.00
11985;BME280;6052;53.246;10.368;2023-03-18T12:35:10;100664.50;;;15.79;96.68
11985;BME280;6052;53.246;10.368;2023-03-18T12:37:59;100660.41;;;15.86;93.70
11985;BME280;6052;53.246;10.368;2023-03-18T12:40:42;100675.31;;;15.89;95.22
11985;BME280;6052;53.246;10.368;2023-03-18T12:43:32;100659.59;;;15.81;92.95
11985;BME280;6052;53.246;10.368;2023-03-18T12:46:12;100649.31;;;15.93;92.91
11985;BME280;6052;53.246;10.368;2023-03-18T12:48:50;100660.91;;;16.13;94.81
11985;BME280;6052;53.246;10.368;2023-03-18T12:51:24;100660.09;;;16.18;94.57
11985;BME280;6052;53.246;10.368;2023-03-18T12:53:59;100656.84;;;16.06;91.56
11985;BME280;6052;53.246;10.368;2023-03-18T12:56:37;100652.78;;;16.08;94.09
11985;BME280;6052;53.246;10.368;2023-03-18T12:59:17;100662.81;;;16.18;93.44
11985;BME280;6052;53.246;10.368;2023-03-18T13:01:59;100657.38;;;16.18;92.45
11985;BME280;6052;53.246;10.368;2023-03-18T13:04:35;100651.97;;;16.23;91.65
11985;BME280;6052;53.246;10.368;2023-03-18T13:07:11;100652.44;;;16.35;91.73